createdAt,value
2023-05-06T00:03:12.301Z,3.93
2023-05-06T00:08:16.571Z,3.88
2023-05-06T00:13:20.236Z,3.83
2023-05-06T00:18:24.029Z,3.78
2023-05-06T00:23:27.523Z,3.75
2023-05-06T00:28:31.047Z,3.72
2023-05-06T00:33:34.670Z,3.66
2023-05-06T00:38:38.075Z,3.66
2023-05-06T00:43:41.731Z,3.63
2023-05-06T00:48:45.722Z,3.60
2023-05-06T00:53:49.673Z,3.56
2023-05-06T00:58:54.566Z,3.52
2023-05-06T01:03:58.947Z,3.49
2023-05-06T01:09:21.410Z,3.46
2023-05-06T01:14:47.340Z,3.46
2023-05-06T01:19:55.663Z,3.42
2023-05-06T01:24:59.097Z,3.36
2023-05-06T01:30:03.004Z,3.32
2023-05-06T01:35:26.696Z,3.27
2023-05-06T01:40:33.548Z,3.23
2023-05-06T01:45:39.579Z,3.18
2023-05-06T01:50:43.811Z,3.17
2023-05-06T01:55:48.435Z,3.16
2023-05-06T02:00:51.738Z,3.15
2023-05-06T02:05:55.900Z,3.11
2023-05-06T02:10:59.701Z,3.08
2023-05-06T02:16:03.455Z,3.02
2023-05-06T02:21:07.034Z,2.97
2023-05-06T02:26:10.969Z,2.92
2023-05-06T02:31:18.070Z,2.87
2023-05-06T02:36:21.483Z,2.81
2023-05-06T02:41:25.097Z,2.80
2023-05-06T02:46:28.709Z,2.79
2023-05-06T02:51:32.121Z,2.77
2023-05-06T02:56:35.660Z,2.78
2023-05-06T03:01:39.096Z,2.82
2023-05-06T03:06:42.665Z,2.87
2023-05-06T03:11:46.591Z,2.95
2023-05-06T03:16:50.058Z,3.05
2023-05-06T03:21:53.721Z,3.18
2023-05-06T03:26:58.760Z,3.30
2023-05-06T03:32:06.011Z,3.44
2023-05-06T03:37:09.389Z,3.55
2023-05-06T03:42:12.908Z,3.67
2023-05-06T03:47:17.554Z,3.82
2023-05-06T03:52:21.371Z,4.02
2023-05-06T03:57:24.681Z,4.23
2023-05-06T04:02:29.653Z,4.42
2023-05-06T04:07:33.449Z,4.60
2023-05-06T04:12:36.905Z,4.77
2023-05-06T04:17:40.522Z,4.99
2023-05-06T04:22:43.998Z,5.16
2023-05-06T04:27:47.830Z,5.28
2023-05-06T04:32:51.370Z,5.41
2023-05-06T04:37:54.856Z,5.59
2023-05-06T04:42:58.371Z,5.71
2023-05-06T04:48:01.993Z,5.81
2023-05-06T04:53:05.725Z,5.93
2023-05-06T04:58:09.480Z,6.04
2023-05-06T05:03:13.029Z,6.14
2023-05-06T05:08:16.780Z,6.32
2023-05-06T05:13:21.341Z,6.40
2023-05-06T05:18:24.732Z,6.58
2023-05-06T05:23:28.238Z,6.89
2023-05-06T05:28:32.370Z,7.20
2023-05-06T05:33:35.812Z,7.49
2023-05-06T05:38:39.601Z,7.77
2023-05-06T05:43:43.321Z,7.88
2023-05-06T05:48:46.665Z,8.08
2023-05-06T05:53:51.994Z,8.26
2023-05-06T05:58:55.619Z,8.34
2023-05-06T06:04:00.378Z,8.47
2023-05-06T06:09:04.585Z,8.73
2023-05-06T06:14:07.901Z,8.91
2023-05-06T06:19:11.929Z,9.14
2023-05-06T06:24:15.341Z,9.47
2023-05-06T06:29:18.806Z,9.73
2023-05-06T06:34:22.675Z,9.92
2023-05-06T06:39:26.089Z,10.27
2023-05-06T06:44:29.507Z,10.62
2023-05-06T06:49:33.022Z,11.08
2023-05-06T06:54:39.056Z,11.44
2023-05-06T06:59:42.707Z,11.50
2023-05-06T07:04:46.157Z,11.40
2023-05-06T07:09:49.740Z,11.45
2023-05-06T07:14:53.165Z,11.72
2023-05-06T07:19:56.614Z,11.89
2023-05-06T07:25:00.038Z,12.00
2023-05-06T07:30:04.212Z,12.21
2023-05-06T07:35:08.954Z,12.55
2023-05-06T07:40:14.540Z,12.94
2023-05-06T07:45:19.823Z,13.22
2023-05-06T07:50:23.180Z,13.38
2023-05-06T07:55:26.701Z,13.68
2023-05-06T08:00:30.200Z,13.67
2023-05-06T08:05:33.635Z,13.82
2023-05-06T08:10:39.195Z,13.75
2023-05-06T08:15:42.928Z,13.77
2023-05-06T08:20:48.624Z,13.99
2023-05-06T08:25:52.136Z,14.14
2023-05-06T08:30:55.820Z,14.43
2023-05-06T08:35:59.338Z,14.50
2023-05-06T08:41:08.294Z,14.77
2023-05-06T08:46:12.136Z,14.64
2023-05-06T08:51:16.065Z,14.76
2023-05-06T08:56:20.463Z,14.81
2023-05-06T09:01:25.153Z,14.87
2023-05-06T09:06:28.619Z,15.25
2023-05-06T09:11:32.150Z,15.54
2023-05-06T09:16:36.090Z,15.55
2023-05-06T09:21:40.816Z,15.50
2023-05-06T09:26:46.302Z,15.50
2023-05-06T09:31:55.219Z,15.77
2023-05-06T09:37:01.390Z,16.40
2023-05-06T09:42:05.214Z,16.63
2023-05-06T09:47:08.637Z,16.86
2023-05-06T09:52:12.452Z,17.13
2023-05-06T09:57:18.906Z,17.43
2023-05-06T10:02:23.883Z,17.71
2023-05-06T10:07:29.141Z,17.83
2023-05-06T10:12:32.670Z,17.91
2023-05-06T10:17:38.416Z,18.04
2023-05-06T10:22:49.526Z,17.83
2023-05-06T10:27:53.469Z,17.89
2023-05-06T10:32:59.852Z,18.17
2023-05-06T10:38:05.527Z,18.21
2023-05-06T10:43:25.634Z,18.17
2023-05-06T10:48:30.238Z,18.12
2023-05-06T10:53:55.974Z,18.22
2023-05-06T10:59:06.055Z,18.29
2023-05-06T11:04:14.126Z,18.38
2023-05-06T11:09:18.601Z,18.25
2023-05-06T11:14:27.549Z,18.22
2023-05-06T11:19:33.993Z,18.23
2023-05-06T11:24:44.728Z,18.39
2023-05-06T11:29:48.160Z,18.44
2023-05-06T11:34:55.327Z,18.35
2023-05-06T11:39:58.738Z,18.54
2023-05-06T11:45:02.640Z,18.74
2023-05-06T11:50:07.874Z,18.80
2023-05-06T11:55:12.292Z,18.80
2023-05-06T12:00:16.628Z,18.50
2023-05-06T12:05:24.104Z,18.45
2023-05-06T12:10:27.506Z,18.40
2023-05-06T12:15:31.174Z,18.31
2023-05-06T12:20:35.162Z,18.26
2023-05-06T12:25:39.613Z,18.12
2023-05-06T12:30:44.381Z,18.07
2023-05-06T12:35:47.661Z,17.93
2023-05-06T12:40:55.377Z,17.85
2023-05-06T12:46:09.362Z,17.67
2023-05-06T12:51:19.712Z,17.40
2023-05-06T12:56:23.423Z,17.35
2023-05-06T13:01:26.661Z,17.30
2023-05-06T13:06:30.187Z,17.26
2023-05-06T13:11:33.404Z,17.23
2023-05-06T13:16:37.501Z,17.26
2023-05-06T13:21:41.417Z,17.04
2023-05-06T13:26:44.919Z,16.94
2023-05-06T13:31:48.261Z,16.96
2023-05-06T13:36:52.361Z,17.07
2023-05-06T13:41:56.201Z,17.06
2023-05-06T13:46:59.341Z,16.83
2023-05-06T13:52:04.008Z,16.48
2023-05-06T13:57:08.267Z,16.33
2023-05-06T14:02:11.958Z,16.35
2023-05-06T14:07:15.609Z,16.34
2023-05-06T14:12:19.128Z,16.30
2023-05-06T14:17:22.649Z,16.27
2023-05-06T14:22:26.263Z,16.15
2023-05-06T14:27:29.777Z,16.09
2023-05-06T14:32:33.448Z,16.12
2023-05-06T14:37:36.910Z,15.93
2023-05-06T14:42:40.635Z,15.90
2023-05-06T14:47:44.435Z,15.91
2023-05-06T14:52:48.424Z,15.97
2023-05-06T14:57:51.746Z,15.94
2023-05-06T15:02:55.291Z,15.91
2023-05-06T15:07:58.673Z,15.76
2023-05-06T15:13:02.299Z,15.63
2023-05-06T15:18:05.840Z,15.62
2023-05-06T15:23:09.364Z,15.42
2023-05-06T15:28:12.778Z,15.23
2023-05-06T15:33:16.294Z,15.14
2023-05-06T15:38:19.708Z,14.99
2023-05-06T15:43:24.269Z,14.86
2023-05-06T15:48:29.532Z,14.79
2023-05-06T15:53:32.894Z,14.67
2023-05-06T15:58:38.325Z,14.49
2023-05-06T16:03:41.997Z,14.36
2023-05-06T16:08:46.020Z,14.29
2023-05-06T16:13:49.433Z,14.32
2023-05-06T16:18:52.750Z,14.27
2023-05-06T16:23:56.261Z,14.20
2023-05-06T16:29:01.720Z,14.14
2023-05-06T16:34:05.102Z,14.06
2023-05-06T16:39:08.872Z,13.98
2023-05-06T16:44:12.369Z,13.89
2023-05-06T16:49:15.791Z,13.78
2023-05-06T16:54:19.725Z,13.65
2023-05-06T16:59:23.961Z,13.56
2023-05-06T17:04:27.259Z,13.43
2023-05-06T17:09:32.395Z,13.33
2023-05-06T17:14:36.128Z,13.26
2023-05-06T17:19:41.181Z,13.16
2023-05-06T17:24:44.489Z,13.05
2023-05-06T17:29:48.208Z,12.95
2023-05-06T17:34:51.632Z,12.82
2023-05-06T17:41:04.593Z,12.70
2023-05-06T17:46:09.593Z,12.55
2023-05-06T17:51:13.136Z,12.40
2023-05-06T17:56:16.908Z,12.26
2023-05-06T18:01:20.401Z,12.13
2023-05-06T18:06:24.501Z,12.07
2023-05-06T18:11:27.912Z,12.14
2023-05-06T18:16:31.904Z,12.05
2023-05-06T18:21:36.236Z,11.87
2023-05-06T18:26:45.470Z,11.67
2023-05-06T18:31:49.585Z,11.49
2023-05-06T18:36:53.074Z,11.33
2023-05-06T18:41:56.479Z,11.17
2023-05-06T18:47:00.109Z,11.08
2023-05-06T18:52:03.841Z,10.97
2023-05-06T18:57:07.280Z,10.86
2023-05-06T19:02:10.985Z,10.77
2023-05-06T19:07:16.141Z,10.69
2023-05-06T19:12:19.854Z,10.62
2023-05-06T19:17:23.469Z,10.54
2023-05-06T19:22:27.074Z,10.48
2023-05-06T19:27:30.801Z,10.42
2023-05-06T19:32:34.367Z,10.36
2023-05-06T19:37:38.724Z,10.30
2023-05-06T19:42:42.974Z,10.23
2023-05-06T19:47:46.349Z,10.18
2023-05-06T19:52:50.731Z,10.11
2023-05-06T19:57:58.766Z,10.05
2023-05-06T20:03:03.466Z,9.99
2023-05-06T20:08:11.568Z,9.93
2023-05-06T20:13:15.057Z,9.88
2023-05-06T20:18:18.439Z,9.81
2023-05-06T20:23:21.956Z,9.75
2023-05-06T20:28:26.454Z,9.66
2023-05-06T20:33:30.115Z,9.59
2023-05-06T20:38:33.933Z,9.50
2023-05-06T20:43:37.560Z,9.40
2023-05-06T20:48:41.578Z,9.29
2023-05-06T20:53:46.522Z,9.18
2023-05-06T20:58:50.144Z,9.06
2023-05-06T21:03:53.816Z,8.95
2023-05-06T21:08:58.299Z,8.84
2023-05-06T21:14:01.613Z,8.75
2023-05-06T21:19:05.125Z,8.66
2023-05-06T21:24:08.862Z,8.58
2023-05-06T21:29:12.264Z,8.51
2023-05-06T21:34:16.081Z,8.44
2023-05-06T21:39:19.495Z,8.35
2023-05-06T21:44:23.009Z,8.28
2023-05-06T21:49:26.627Z,8.21
2023-05-06T21:54:31.886Z,8.16
2023-05-06T21:59:36.545Z,8.12
2023-05-06T22:04:39.949Z,8.10
2023-05-06T22:09:44.324Z,8.06
2023-05-06T22:14:47.695Z,8.03
2023-05-06T22:19:52.025Z,7.98
2023-05-06T22:24:56.050Z,7.95
2023-05-06T22:30:00.147Z,7.91
2023-05-06T22:35:04.474Z,7.85
2023-05-06T22:40:09.843Z,7.81
2023-05-06T22:45:13.721Z,7.75
2023-05-06T22:50:17.826Z,7.67
2023-05-06T22:55:21.336Z,7.60
2023-05-06T23:00:25.268Z,7.50
2023-05-06T23:05:28.884Z,7.42
2023-05-06T23:10:32.298Z,7.32
2023-05-06T23:15:36.655Z,7.21
2023-05-06T23:20:39.941Z,7.10
2023-05-06T23:25:43.557Z,6.96
2023-05-06T23:30:47.105Z,6.85
2023-05-06T23:35:50.693Z,6.74
2023-05-06T23:40:54.740Z,6.61
2023-05-06T23:45:58.177Z,6.45
2023-05-06T23:51:01.660Z,6.30
2023-05-06T23:56:06.027Z,6.19
